createdAt,value
2022-11-12T00:02:37.715Z,98.84
2022-11-12T00:07:38.862Z,98.89
2022-11-12T00:12:40.454Z,98.68
2022-11-12T00:17:41.735Z,98.37
2022-11-12T00:22:43.107Z,98.26
2022-11-12T00:27:44.253Z,98.04
2022-11-12T00:32:45.372Z,97.88
2022-11-12T00:37:46.480Z,97.60
2022-11-12T00:42:49.542Z,97.35
2022-11-12T00:47:55.921Z,97.15
2022-11-12T00:52:57.099Z,96.73
2022-11-12T00:57:58.794Z,96.26
2022-11-12T01:02:59.900Z,96.13
2022-11-12T01:08:01.049Z,95.68
2022-11-12T01:13:02.179Z,95.37
2022-11-12T01:18:03.430Z,95.33
2022-11-12T01:23:05.540Z,95.34
2022-11-12T01:28:06.702Z,95.19
2022-11-12T01:33:08.152Z,94.84
2022-11-12T01:38:09.246Z,94.34
2022-11-12T01:43:13.473Z,94.18
2022-11-12T01:48:38.296Z,94.18
2022-11-12T01:53:44.936Z,93.98
2022-11-12T01:58:48.495Z,93.68
2022-11-12T02:03:49.769Z,93.57
2022-11-12T02:08:51.187Z,93.61
2022-11-12T02:14:02.854Z,93.45
2022-11-12T02:19:08.048Z,93.36
2022-11-12T02:24:11.932Z,92.71
2022-11-12T02:29:12.989Z,92.51
2022-11-12T02:34:14.137Z,92.61
2022-11-12T02:39:15.301Z,92.88
2022-11-12T02:44:16.432Z,92.57
2022-11-12T02:49:17.533Z,92.16
2022-11-12T02:54:18.622Z,92.17
2022-11-12T02:59:19.836Z,91.95
2022-11-12T03:04:20.942Z,92.24
2022-11-12T03:09:22.959Z,92.52
2022-11-12T03:14:24.917Z,92.57
2022-11-12T03:19:26.019Z,92.36
2022-11-12T03:24:28.305Z,92.21
2022-11-12T03:29:29.386Z,91.86
2022-11-12T03:34:30.826Z,91.86
2022-11-12T03:39:31.913Z,91.61
2022-11-12T03:44:33.366Z,91.64
2022-11-12T03:49:34.450Z,91.59
2022-11-12T03:54:35.629Z,91.24
2022-11-12T03:59:36.806Z,91.21
2022-11-12T04:04:56.744Z,91.16
2022-11-12T04:09:58.216Z,90.87
2022-11-12T04:15:01.499Z,90.86
2022-11-12T04:20:20.811Z,90.74
2022-11-12T04:25:40.752Z,90.96
2022-11-12T04:30:41.925Z,90.65
2022-11-12T04:35:43.105Z,90.71
2022-11-12T04:41:02.944Z,90.76
2022-11-12T04:46:04.522Z,90.67
2022-11-12T04:51:25.783Z,90.70
2022-11-12T04:56:26.967Z,90.86
2022-11-12T05:01:28.185Z,90.94
2022-11-12T05:06:48.237Z,91.05
2022-11-12T05:11:49.759Z,91.00
2022-11-12T05:16:51.522Z,91.15
2022-11-12T05:22:33.348Z,91.10
2022-11-12T05:27:33.699Z,91.20
2022-11-12T05:32:34.779Z,91.13
2022-11-12T05:37:35.878Z,91.17
2022-11-12T05:42:37.014Z,91.30
2022-11-12T05:47:38.173Z,91.32
2022-11-12T05:52:39.216Z,91.23
2022-11-12T05:57:40.332Z,91.29
2022-11-12T06:02:43.037Z,91.47
2022-11-12T06:07:44.359Z,91.43
2022-11-12T06:12:46.756Z,91.62
2022-11-12T06:17:47.842Z,91.68
2022-11-12T06:22:49.465Z,91.63
2022-11-12T06:27:50.886Z,91.56
2022-11-12T06:32:52.204Z,91.77
2022-11-12T06:37:54.556Z,91.87
2022-11-12T06:42:57.494Z,91.92
2022-11-12T06:47:59.178Z,91.77
2022-11-12T06:53:00.269Z,91.59
2022-11-12T06:58:01.383Z,91.52
2022-11-12T07:03:09.311Z,91.54
2022-11-12T07:08:10.535Z,91.59
2022-11-12T07:13:11.873Z,91.54
2022-11-12T07:18:13.032Z,91.41
2022-11-12T07:23:14.203Z,91.19
2022-11-12T07:28:15.558Z,91.10
2022-11-12T07:33:16.651Z,90.89
2022-11-12T07:38:18.551Z,90.55
2022-11-12T07:43:19.715Z,90.56
2022-11-12T07:48:20.805Z,90.07
2022-11-12T07:53:22.014Z,89.97
2022-11-12T07:58:24.243Z,89.92
2022-11-12T08:03:25.858Z,89.75
2022-11-12T08:08:27.431Z,89.67
2022-11-12T08:13:28.981Z,89.31
2022-11-12T08:18:32.525Z,89.06
2022-11-12T08:23:33.672Z,88.82
2022-11-12T08:28:36.528Z,88.84
2022-11-12T08:33:38.180Z,88.63
2022-11-12T08:38:40.013Z,88.73
2022-11-12T08:43:42.212Z,88.50
2022-11-12T08:48:43.340Z,88.51
2022-11-12T08:53:44.472Z,88.58
2022-11-12T08:58:45.583Z,88.93
2022-11-12T09:03:48.569Z,88.96
2022-11-12T09:08:49.650Z,88.52
2022-11-12T09:13:54.269Z,88.44
2022-11-12T09:18:55.535Z,88.46
2022-11-12T09:23:56.648Z,88.68
2022-11-12T09:28:57.914Z,88.58
2022-11-12T09:33:59.021Z,88.42
2022-11-12T09:39:00.802Z,88.28
2022-11-12T09:44:06.744Z,88.09
2022-11-12T09:49:28.320Z,88.25
2022-11-12T09:54:34.248Z,87.94
2022-11-12T09:59:40.550Z,87.78
2022-11-12T10:05:19.307Z,87.45
2022-11-12T10:10:40.456Z,86.97
2022-11-12T10:16:15.256Z,86.43
2022-11-12T10:21:34.981Z,86.78
2022-11-12T10:26:38.958Z,86.87
2022-11-12T10:31:40.091Z,86.78
2022-11-12T10:37:01.837Z,86.47
2022-11-12T10:42:22.241Z,85.69
2022-11-12T10:47:23.310Z,85.26
2022-11-12T10:52:24.656Z,85.01
2022-11-12T10:57:26.875Z,84.90
2022-11-12T11:02:28.025Z,84.74
2022-11-12T11:07:29.382Z,84.47
2022-11-12T11:12:33.354Z,84.36
2022-11-12T11:17:34.787Z,84.27
2022-11-12T11:22:43.150Z,84.40
2022-11-12T11:28:12.880Z,84.34
2022-11-12T11:33:32.839Z,84.42
2022-11-12T11:38:44.129Z,84.41
2022-11-12T11:43:48.397Z,84.54
2022-11-12T11:49:01.522Z,83.87
2022-11-12T11:54:40.105Z,83.56
2022-11-12T12:00:23.402Z,83.52
2022-11-12T12:05:36.548Z,83.46
2022-11-12T12:11:09.965Z,83.48
2022-11-12T12:16:33.217Z,83.39
2022-11-12T12:21:38.747Z,83.43
2022-11-12T12:26:46.122Z,83.11
2022-11-12T12:32:10.359Z,83.15
2022-11-12T12:37:21.317Z,83.43
2022-11-12T12:42:32.973Z,83.64
2022-11-12T12:47:42.395Z,83.86
2022-11-12T12:53:04.779Z,84.27
2022-11-12T12:58:35.323Z,84.30
2022-11-12T13:03:45.880Z,84.58
2022-11-12T13:08:59.777Z,84.68
2022-11-12T13:14:39.655Z,84.95
2022-11-12T13:20:02.512Z,85.07
2022-11-12T13:25:11.141Z,85.16
2022-11-12T13:30:20.056Z,85.56
2022-11-12T13:35:25.122Z,85.86
2022-11-12T13:40:29.323Z,86.20
2022-11-12T13:45:34.933Z,86.39
2022-11-12T13:50:40.382Z,86.38
2022-11-12T13:55:51.334Z,86.33
2022-11-12T14:00:55.126Z,86.57
2022-11-12T14:06:02.375Z,86.85
2022-11-12T14:11:12.687Z,87.30
2022-11-12T14:16:58.972Z,87.73
2022-11-12T14:22:21.078Z,88.11
2022-11-12T14:27:32.440Z,88.60
2022-11-12T14:32:40.066Z,88.96
2022-11-12T14:37:49.811Z,89.30
2022-11-12T14:42:52.777Z,89.77
2022-11-12T14:47:54.545Z,90.24
2022-11-12T14:53:07.221Z,90.86
2022-11-12T14:58:14.617Z,91.34
2022-11-12T15:03:22.320Z,91.74
2022-11-12T15:08:38.049Z,92.15
2022-11-12T15:13:43.851Z,92.59
2022-11-12T15:19:16.775Z,93.06
2022-11-12T15:24:38.387Z,93.73
2022-11-12T15:29:39.824Z,94.20
2022-11-12T15:34:41.197Z,94.90
2022-11-12T15:39:47.361Z,95.28
2022-11-12T15:44:50.260Z,95.65
2022-11-12T15:49:54.177Z,96.19
2022-11-12T15:54:55.327Z,96.79
2022-11-12T16:00:08.502Z,97.26
2022-11-12T16:05:14.513Z,97.82
2022-11-12T16:10:18.498Z,98.33
2022-11-12T16:15:24.856Z,99.03
2022-11-12T16:20:32.453Z,99.50
2022-11-12T16:25:36.518Z,99.82
2022-11-12T16:30:37.651Z,99.99
2022-11-12T16:35:39.792Z,100.00
2022-11-12T16:40:42.025Z,100.00
2022-11-12T16:45:44.612Z,100.00
2022-11-12T16:50:46.527Z,100.00
2022-11-12T16:55:47.873Z,100.00
2022-11-12T17:00:52.778Z,100.00
2022-11-12T17:05:54.070Z,100.00
2022-11-12T17:10:55.988Z,100.00
2022-11-12T17:15:57.948Z,100.00
2022-11-12T17:21:25.780Z,100.00
2022-11-12T17:26:29.755Z,100.00
2022-11-12T17:31:32.042Z,100.00
2022-11-12T17:36:33.179Z,100.00
2022-11-12T17:41:34.327Z,100.00
2022-11-12T17:46:35.753Z,100.00
2022-11-12T17:51:37.208Z,100.00
2022-11-12T17:56:38.533Z,100.00
2022-11-12T18:01:39.757Z,100.00
2022-11-12T18:06:41.224Z,100.00
2022-11-12T18:11:48.326Z,100.00
2022-11-12T18:16:50.428Z,100.00
2022-11-12T18:21:56.102Z,100.00
2022-11-12T18:26:58.821Z,100.00
2022-11-12T18:31:59.953Z,100.00
2022-11-12T18:37:01.172Z,100.00
2022-11-12T18:42:03.312Z,100.00
2022-11-12T18:47:04.521Z,100.00
2022-11-12T18:52:05.733Z,100.00
2022-11-12T18:57:06.918Z,100.00
2022-11-12T19:02:10.807Z,100.00
2022-11-12T19:07:12.012Z,100.00
2022-11-12T19:12:13.137Z,100.00
2022-11-12T19:17:14.328Z,100.00
2022-11-12T19:22:15.429Z,100.00
2022-11-12T19:27:16.646Z,100.00
2022-11-12T19:32:17.981Z,100.00
2022-11-12T19:37:33.045Z,100.00
2022-11-12T19:42:35.646Z,100.00
2022-11-12T19:47:40.158Z,100.00
2022-11-12T19:52:44.403Z,100.00
2022-11-12T19:57:46.563Z,100.00
2022-11-12T20:02:47.697Z,100.00
2022-11-12T20:07:50.848Z,100.00
2022-11-12T20:12:51.917Z,100.00
2022-11-12T20:17:54.261Z,100.00
2022-11-12T20:22:55.533Z,100.00
2022-11-12T20:27:56.775Z,100.00
2022-11-12T20:32:58.653Z,100.00
2022-11-12T20:37:59.750Z,100.00
2022-11-12T20:43:00.955Z,100.00
2022-11-12T20:48:04.575Z,100.00
2022-11-12T20:53:06.676Z,100.00
2022-11-12T20:58:07.894Z,100.00
2022-11-12T21:03:10.026Z,100.00
2022-11-12T21:08:12.567Z,100.00
2022-11-12T21:13:15.175Z,100.00
2022-11-12T21:18:16.783Z,100.00
2022-11-12T21:23:17.927Z,100.00
2022-11-12T21:28:19.064Z,100.00
2022-11-12T21:33:20.383Z,100.00
2022-11-12T21:38:22.893Z,100.00
2022-11-12T21:43:38.073Z,100.00
2022-11-12T21:48:39.862Z,100.00
2022-11-12T21:53:42.735Z,100.00
2022-11-12T21:58:44.707Z,100.00
2022-11-12T22:03:48.043Z,100.00
2022-11-12T22:08:54.199Z,100.00
2022-11-12T22:13:55.695Z,100.00
2022-11-12T22:18:58.644Z,100.00
2022-11-12T22:23:59.775Z,100.00
2022-11-12T22:29:00.976Z,100.00
2022-11-12T22:34:03.531Z,100.00
2022-11-12T22:39:07.266Z,100.00
2022-11-12T22:44:11.296Z,100.00
2022-11-12T22:49:12.440Z,100.00
2022-11-12T22:54:17.267Z,100.00
2022-11-12T22:59:18.437Z,100.00
2022-11-12T23:04:19.855Z,100.00
2022-11-12T23:09:24.176Z,100.00
2022-11-12T23:14:25.325Z,100.00
2022-11-12T23:19:27.200Z,100.00
2022-11-12T23:24:28.288Z,100.00
2022-11-12T23:29:29.415Z,100.00
2022-11-12T23:34:30.516Z,100.00
2022-11-12T23:39:31.615Z,100.00
2022-11-12T23:44:32.791Z,100.00
2022-11-12T23:49:33.870Z,100.00
2022-11-12T23:54:34.998Z,100.00
2022-11-12T23:59:36.160Z,100.00
